createdAt,value
2024-04-21T00:00:50.337Z,2.853
2024-04-21T00:01:50.341Z,2.853
2024-04-21T00:02:50.354Z,2.853
2024-04-21T00:03:50.642Z,2.829
2024-04-21T00:04:50.353Z,2.829
2024-04-21T00:05:50.345Z,2.813
2024-04-21T00:06:50.378Z,2.813
2024-04-21T00:07:50.369Z,2.813
2024-04-21T00:08:50.378Z,2.857
2024-04-21T00:09:50.393Z,2.850
2024-04-21T00:10:50.406Z,2.810
2024-04-21T00:11:50.409Z,2.810
2024-04-21T00:12:50.457Z,2.850
2024-04-21T00:13:50.423Z,2.850
2024-04-21T00:14:50.443Z,2.809
2024-04-21T00:15:50.572Z,2.807
2024-04-21T00:17:50.519Z,2.807
2024-04-21T00:18:50.528Z,2.797
2024-04-21T00:19:50.466Z,2.812
2024-04-21T00:20:50.496Z,2.810
2024-04-21T00:21:50.511Z,2.812
2024-04-21T00:22:50.503Z,2.810
2024-04-21T00:23:50.504Z,2.805
2024-04-21T00:24:50.548Z,2.803
2024-04-21T00:25:50.539Z,2.803
2024-04-21T00:26:50.544Z,2.803
2024-04-21T00:27:50.569Z,2.801
2024-04-21T00:28:50.562Z,2.787
2024-04-21T00:29:50.579Z,2.814
2024-04-21T00:31:50.573Z,2.814
2024-04-21T00:32:50.625Z,2.814
2024-04-21T00:33:50.748Z,2.812
2024-04-21T00:34:50.609Z,2.823
2024-04-21T00:35:50.614Z,2.823
2024-04-21T00:36:50.650Z,2.823
2024-04-21T00:37:50.650Z,2.823
2024-04-21T00:38:50.666Z,2.809
2024-04-21T00:39:50.731Z,2.817
2024-04-21T00:40:50.679Z,2.817
2024-04-21T00:41:50.696Z,2.817
2024-04-21T00:42:50.722Z,2.817
2024-04-21T00:43:50.736Z,2.817
2024-04-21T00:44:50.738Z,2.817
2024-04-21T00:45:50.819Z,2.817
2024-04-21T00:46:50.831Z,2.817
2024-04-21T00:47:50.795Z,2.817
2024-04-21T00:48:50.859Z,2.814
2024-04-21T00:49:50.787Z,2.822
2024-04-21T00:50:50.810Z,2.779
2024-04-21T00:51:50.836Z,2.779
2024-04-21T00:52:50.845Z,2.767
2024-04-21T00:53:50.860Z,2.789
2024-04-21T00:54:50.886Z,2.789
2024-04-21T00:55:50.875Z,2.789
2024-04-21T00:56:50.891Z,2.789
2024-04-21T00:57:50.914Z,2.789
2024-04-21T00:58:50.915Z,2.752
2024-04-21T00:59:50.931Z,2.751
2024-04-21T01:00:51.030Z,2.805
2024-04-21T01:01:51.000Z,2.762
2024-04-21T01:02:50.973Z,2.802
2024-04-21T01:03:51.149Z,2.795
2024-04-21T01:04:51.092Z,2.752
2024-04-21T01:05:53.324Z,2.795
2024-04-21T01:06:51.038Z,2.795
2024-04-21T01:07:51.035Z,2.795
2024-04-21T01:08:51.048Z,2.776
2024-04-21T01:09:51.079Z,2.776
2024-04-21T01:10:51.098Z,2.764
2024-04-21T01:11:51.121Z,2.764
2024-04-21T01:12:51.198Z,2.764
2024-04-21T01:13:51.147Z,2.764
2024-04-21T01:14:51.128Z,2.764
2024-04-21T01:15:51.138Z,2.757
2024-04-21T01:16:51.187Z,2.757
2024-04-21T01:18:51.183Z,2.764
2024-04-21T01:19:51.169Z,2.764
2024-04-21T01:20:51.196Z,2.772
2024-04-21T01:21:51.237Z,2.772
2024-04-21T01:22:51.244Z,2.772
2024-04-21T01:23:51.250Z,2.772
2024-04-21T01:24:51.282Z,2.772
2024-04-21T01:25:51.296Z,2.787
2024-04-21T01:27:51.323Z,2.787
2024-04-21T01:28:51.328Z,2.756
2024-04-21T01:29:51.324Z,2.756
2024-04-21T01:30:51.380Z,2.756
2024-04-21T01:32:51.445Z,2.740
2024-04-21T01:33:51.405Z,2.724
2024-04-21T01:34:51.379Z,2.724
2024-04-21T01:35:51.403Z,2.724
2024-04-21T01:36:51.453Z,2.724
2024-04-21T01:37:51.440Z,2.752
2024-04-21T01:38:51.462Z,2.707
2024-04-21T01:39:51.531Z,2.707
2024-04-21T01:41:51.472Z,2.745
2024-04-21T01:42:51.522Z,2.745
2024-04-21T01:43:51.494Z,2.734
2024-04-21T01:44:51.527Z,2.734
2024-04-21T01:45:51.558Z,2.734
2024-04-21T01:46:51.684Z,2.718
2024-04-21T01:47:51.579Z,2.718
2024-04-21T01:48:51.598Z,2.711
2024-04-21T01:49:51.588Z,2.711
2024-04-21T01:50:51.576Z,2.711
2024-04-21T01:51:51.626Z,2.719
2024-04-21T01:52:51.621Z,2.719
2024-04-21T01:53:51.629Z,2.714
2024-04-21T01:54:51.656Z,2.714
2024-04-21T01:55:51.654Z,2.714
2024-04-21T01:56:51.662Z,2.712
2024-04-21T01:57:51.681Z,2.712
2024-04-21T01:58:51.696Z,2.719
2024-04-21T01:59:51.708Z,2.719
2024-04-21T02:00:51.815Z,2.719
2024-04-21T02:01:51.789Z,2.702
2024-04-21T02:02:51.792Z,2.702
2024-04-21T02:03:51.826Z,2.684
2024-04-21T02:04:51.796Z,2.684
2024-04-21T02:05:51.767Z,2.684
2024-04-21T02:06:51.825Z,2.700
2024-04-21T02:07:51.823Z,2.700
2024-04-21T02:08:51.833Z,2.702
2024-04-21T02:09:51.874Z,2.702
2024-04-21T02:10:51.871Z,2.702
2024-04-21T02:11:51.883Z,2.647
2024-04-21T02:12:51.940Z,2.647
2024-04-21T02:14:51.903Z,2.647
2024-04-21T02:15:51.943Z,2.699
2024-04-21T02:16:51.960Z,2.695
2024-04-21T02:17:51.988Z,2.695
2024-04-21T02:18:51.971Z,2.693
2024-04-21T02:19:51.982Z,2.697
2024-04-21T02:20:51.987Z,2.654
2024-04-21T02:21:52.011Z,2.659
2024-04-21T02:22:52.007Z,2.661
2024-04-21T02:23:52.033Z,2.659
2024-04-21T02:24:52.082Z,2.659
2024-04-21T02:26:52.026Z,2.668
2024-04-21T02:28:52.027Z,2.670
2024-04-21T02:29:52.042Z,2.620
2024-04-21T02:30:52.175Z,2.620
2024-04-21T02:31:52.070Z,2.636
2024-04-21T02:32:52.153Z,2.640
2024-04-21T02:33:52.198Z,2.636
2024-04-21T02:34:52.105Z,2.654
2024-04-21T02:35:52.142Z,2.652
2024-04-21T02:36:52.140Z,2.675
2024-04-21T02:37:52.129Z,2.675
2024-04-21T02:38:52.181Z,2.677
2024-04-21T02:39:52.195Z,2.684
2024-04-21T02:40:52.182Z,2.682
2024-04-21T02:41:52.140Z,2.673
2024-04-21T02:42:52.165Z,2.674
2024-04-21T02:43:52.164Z,2.674
2024-04-21T02:44:52.181Z,2.647
2024-04-21T02:45:52.248Z,2.645
2024-04-21T02:46:52.228Z,2.615
2024-04-21T02:47:52.274Z,2.619
2024-04-21T02:48:52.227Z,2.619
2024-04-21T02:49:52.245Z,2.612
2024-04-21T02:51:52.246Z,2.598
2024-04-21T02:52:52.230Z,2.643
2024-04-21T02:53:52.237Z,2.641
2024-04-21T02:54:52.321Z,2.634
2024-04-21T02:56:52.278Z,2.634
2024-04-21T02:57:52.303Z,2.635
2024-04-21T02:58:52.291Z,2.635
2024-04-21T02:59:52.316Z,2.584
2024-04-21T03:00:52.421Z,2.631
2024-04-21T03:01:52.363Z,2.591
2024-04-21T03:02:52.367Z,2.629
2024-04-21T03:03:52.453Z,2.629
2024-04-21T03:04:52.356Z,2.579
2024-04-21T03:05:52.343Z,2.579
2024-04-21T03:06:52.363Z,2.614
2024-04-21T03:07:52.357Z,2.614
2024-04-21T03:08:52.381Z,2.618
2024-04-21T03:10:52.401Z,2.606
2024-04-21T03:11:52.409Z,2.602
2024-04-21T03:12:52.418Z,2.598
2024-04-21T03:13:52.435Z,2.598
2024-04-21T03:14:52.426Z,2.600
2024-04-21T03:15:52.482Z,2.600
2024-04-21T03:17:52.458Z,2.600
2024-04-21T03:18:52.463Z,2.600
2024-04-21T03:19:52.458Z,2.598
2024-04-21T03:20:52.468Z,2.602
2024-04-21T03:21:52.514Z,2.602
2024-04-21T03:22:52.516Z,2.602
2024-04-21T03:24:52.548Z,2.593
2024-04-21T03:26:52.546Z,2.582
2024-04-21T03:27:52.642Z,2.578
2024-04-21T03:29:52.553Z,2.594
2024-04-21T03:30:52.566Z,2.594
2024-04-21T03:31:52.566Z,2.613
2024-04-21T03:33:52.603Z,2.565
2024-04-21T03:34:52.594Z,2.561
2024-04-21T03:35:52.606Z,2.559
2024-04-21T03:36:52.642Z,2.566
2024-04-21T03:37:52.617Z,2.566
2024-04-21T03:38:52.628Z,2.593
2024-04-21T03:39:52.739Z,2.593
2024-04-21T03:40:52.654Z,2.593
2024-04-21T03:41:52.676Z,2.591
2024-04-21T03:42:52.680Z,2.589
2024-04-21T03:43:52.675Z,2.569
2024-04-21T03:44:52.680Z,2.569
2024-04-21T03:45:52.703Z,2.567
2024-04-21T03:46:52.732Z,2.573
2024-04-21T03:47:52.708Z,2.569
2024-04-21T03:48:52.730Z,2.577
2024-04-21T03:49:52.733Z,2.575
2024-04-21T03:50:52.747Z,2.575
2024-04-21T03:51:52.774Z,2.564
2024-04-21T03:52:52.754Z,2.570
2024-04-21T03:53:52.765Z,2.555
2024-04-21T03:54:52.811Z,2.553
2024-04-21T03:55:52.798Z,2.551
2024-04-21T03:56:52.800Z,2.555
2024-04-21T03:57:52.828Z,2.555
2024-04-21T03:58:52.816Z,2.551
2024-04-21T03:59:52.834Z,2.551
2024-04-21T04:00:52.904Z,2.551
2024-04-21T04:01:52.857Z,2.549
2024-04-21T04:02:52.865Z,2.552
2024-04-21T04:03:52.976Z,2.554
2024-04-21T04:04:52.979Z,2.557
2024-04-21T04:05:52.877Z,2.555
2024-04-21T04:06:52.897Z,2.575
2024-04-21T04:07:52.891Z,2.531
2024-04-21T04:08:52.894Z,2.524
2024-04-21T04:09:52.968Z,2.567
2024-04-21T04:11:52.907Z,2.566
2024-04-21T04:12:52.942Z,2.567
2024-04-21T04:13:52.925Z,2.525
2024-04-21T04:14:52.939Z,2.575
2024-04-21T04:15:52.942Z,2.573
2024-04-21T04:16:52.950Z,2.573
2024-04-21T04:17:53.022Z,2.536
2024-04-21T04:18:53.031Z,2.594
2024-04-21T04:20:52.987Z,2.541
2024-04-21T04:21:53.023Z,2.596
2024-04-21T04:22:53.013Z,2.555
2024-04-21T04:23:53.028Z,2.605
2024-04-21T04:24:53.040Z,2.611
2024-04-21T04:25:53.037Z,2.559
2024-04-21T04:26:53.043Z,2.567
2024-04-21T04:27:53.063Z,2.557
2024-04-21T04:28:53.046Z,2.623
2024-04-21T04:29:53.060Z,2.625
2024-04-21T04:30:53.103Z,2.625
2024-04-21T04:31:53.091Z,2.623
2024-04-21T04:32:53.137Z,2.626
2024-04-21T04:33:53.409Z,2.639
2024-04-21T04:34:53.122Z,2.622
2024-04-21T04:35:53.131Z,2.626
2024-04-21T04:36:53.161Z,2.621
2024-04-21T04:37:55.364Z,2.619
2024-04-21T04:39:53.246Z,2.627
2024-04-21T04:40:53.172Z,2.627
2024-04-21T04:41:53.171Z,2.632
2024-04-21T04:42:53.199Z,2.628
2024-04-21T04:43:53.190Z,2.656
2024-04-21T04:44:53.207Z,2.644
2024-04-21T04:45:53.261Z,2.648
2024-04-21T04:46:53.243Z,2.648
2024-04-21T04:47:53.282Z,2.648
2024-04-21T04:48:53.267Z,2.683
2024-04-21T04:49:53.254Z,2.689
2024-04-21T04:50:53.285Z,2.687
2024-04-21T04:51:53.297Z,2.689
2024-04-21T04:53:53.287Z,2.722
2024-04-21T04:54:53.301Z,2.718
2024-04-21T04:55:53.294Z,2.718
2024-04-21T04:56:53.322Z,2.676
2024-04-21T04:57:53.408Z,2.736
2024-04-21T04:58:53.331Z,2.781
2024-04-21T04:59:53.339Z,2.785
2024-04-21T05:00:53.376Z,2.785
2024-04-21T05:01:53.489Z,2.778
2024-04-21T05:02:53.427Z,2.820
2024-04-21T05:03:53.449Z,2.769
2024-04-21T05:04:53.546Z,2.823
2024-04-21T05:05:53.404Z,2.819
2024-04-21T05:06:53.420Z,2.819
2024-04-21T05:07:53.418Z,2.873
2024-04-21T05:08:53.419Z,2.902
2024-04-21T05:09:53.437Z,2.904
2024-04-21T05:10:53.492Z,2.902
2024-04-21T05:11:53.424Z,2.897
2024-04-21T05:12:53.446Z,2.959
2024-04-21T05:13:53.446Z,2.938
2024-04-21T05:14:53.457Z,2.936
2024-04-21T05:15:53.506Z,3.000
2024-04-21T05:16:53.476Z,3.000
2024-04-21T05:17:53.562Z,3.057
2024-04-21T05:18:53.575Z,3.072
2024-04-21T05:19:53.602Z,3.065
2024-04-21T05:20:56.151Z,3.125
2024-04-21T05:21:53.516Z,3.120
2024-04-21T05:22:53.525Z,3.122
2024-04-21T05:23:53.525Z,3.185
2024-04-21T05:24:53.591Z,3.194
2024-04-21T05:26:53.569Z,3.185
2024-04-21T05:27:53.601Z,3.246
2024-04-21T05:28:53.625Z,3.221
2024-04-21T05:29:53.610Z,3.230
2024-04-21T05:30:53.633Z,3.223
2024-04-21T05:31:53.674Z,3.277
2024-04-21T05:32:53.688Z,3.277
2024-04-21T05:34:53.637Z,3.355
2024-04-21T05:35:53.639Z,3.355
2024-04-21T05:36:53.726Z,3.350
2024-04-21T05:37:53.654Z,3.357
2024-04-21T05:38:53.680Z,3.355
2024-04-21T05:39:53.680Z,3.390
2024-04-21T05:40:53.691Z,3.382
2024-04-21T05:41:53.693Z,3.390
2024-04-21T05:42:53.729Z,3.441
2024-04-21T05:43:53.742Z,3.447
2024-04-21T05:45:53.756Z,3.440
2024-04-21T05:46:53.747Z,3.445
2024-04-21T05:47:53.888Z,3.479
2024-04-21T05:48:53.786Z,3.476
2024-04-21T05:49:53.761Z,3.480
2024-04-21T05:50:53.765Z,3.477
2024-04-21T05:51:53.838Z,3.477
2024-04-21T05:52:53.780Z,3.533
2024-04-21T05:53:55.182Z,3.533
2024-04-21T05:54:53.816Z,3.538
2024-04-21T05:55:53.815Z,3.598
2024-04-21T05:56:53.826Z,3.598
2024-04-21T05:57:53.855Z,3.595
2024-04-21T05:58:53.835Z,3.661
2024-04-21T05:59:53.834Z,3.677
2024-04-21T06:00:53.892Z,3.674
2024-04-21T06:01:53.857Z,3.677
2024-04-21T06:02:53.917Z,3.744
2024-04-21T06:03:53.978Z,3.741
2024-04-21T06:04:54.015Z,3.710
2024-04-21T06:05:53.893Z,3.769
2024-04-21T06:06:53.928Z,3.760
2024-04-21T06:08:53.914Z,3.838
2024-04-21T06:09:53.944Z,3.795
2024-04-21T06:10:53.924Z,3.795
2024-04-21T06:11:54.086Z,3.795
2024-04-21T06:12:53.986Z,3.795
2024-04-21T06:13:53.963Z,3.826
2024-04-21T06:14:53.976Z,3.813
2024-04-21T06:15:53.998Z,3.813
2024-04-21T06:16:53.990Z,3.886
2024-04-21T06:17:54.275Z,3.877
2024-04-21T06:19:54.022Z,3.895
2024-04-21T06:20:54.013Z,3.895
2024-04-21T06:21:54.055Z,3.945
2024-04-21T06:22:54.029Z,3.884
2024-04-21T06:23:54.038Z,3.957
2024-04-21T06:24:54.074Z,4.014
2024-04-21T06:25:54.074Z,4.020
2024-04-21T06:27:54.111Z,4.014
2024-04-21T06:28:54.079Z,4.062
2024-04-21T06:29:54.084Z,3.996
2024-04-21T06:30:54.125Z,4.002
2024-04-21T06:31:54.125Z,4.002
2024-04-21T06:32:54.144Z,3.996
2024-04-21T06:33:54.148Z,4.062
2024-04-21T06:34:54.120Z,4.045
2024-04-21T06:35:54.131Z,4.051
2024-04-21T06:36:54.162Z,4.124
2024-04-21T06:37:54.146Z,4.130
2024-04-21T06:38:54.228Z,4.130
2024-04-21T06:39:54.189Z,4.126
2024-04-21T06:40:54.168Z,4.123
2024-04-21T06:42:54.201Z,4.176
2024-04-21T06:43:54.177Z,4.176
2024-04-21T06:44:54.216Z,4.150
2024-04-21T06:45:54.227Z,4.150
2024-04-21T06:46:54.211Z,4.218
2024-04-21T06:47:54.346Z,4.215
2024-04-21T06:48:54.439Z,4.215
2024-04-21T06:49:54.243Z,4.195
2024-04-21T06:50:54.246Z,4.186
2024-04-21T06:51:54.346Z,4.239
2024-04-21T06:52:54.257Z,4.245
2024-04-21T06:53:54.262Z,4.239
2024-04-21T06:54:54.318Z,4.205
2024-04-21T06:55:54.277Z,4.294
2024-04-21T06:57:54.300Z,4.291
2024-04-21T06:58:54.325Z,4.291
2024-04-21T07:00:54.498Z,4.265
2024-04-21T07:01:54.421Z,4.259
2024-04-21T07:02:54.361Z,4.336
2024-04-21T07:03:54.376Z,4.270
2024-04-21T07:04:54.353Z,4.270
2024-04-21T07:05:54.355Z,4.270
2024-04-21T07:06:54.366Z,4.335
2024-04-21T07:07:54.369Z,4.335
2024-04-21T07:09:54.376Z,4.403
2024-04-21T07:10:54.956Z,4.331
2024-04-21T07:11:54.390Z,4.331
2024-04-21T07:12:54.437Z,4.270
2024-04-21T07:14:54.407Z,4.397
2024-04-21T07:15:54.449Z,4.397
2024-04-21T07:16:54.466Z,4.391
2024-04-21T07:17:54.558Z,4.321
2024-04-21T07:18:55.130Z,4.248
2024-04-21T07:19:54.457Z,4.324
2024-04-21T07:20:54.473Z,4.324
2024-04-21T07:21:54.501Z,4.478
2024-04-21T07:22:54.465Z,4.474
2024-04-21T07:23:54.480Z,4.476
2024-04-21T07:24:56.641Z,4.373
2024-04-21T07:25:54.570Z,4.447
2024-04-21T07:26:54.516Z,4.444
2024-04-21T07:27:54.578Z,4.513
2024-04-21T07:28:54.526Z,4.526
2024-04-21T07:29:54.533Z,4.526
2024-04-21T07:30:54.556Z,4.428
2024-04-21T07:31:54.610Z,4.494
2024-04-21T07:32:54.603Z,4.421
2024-04-21T07:33:54.568Z,4.424
2024-04-21T07:34:54.561Z,4.428
2024-04-21T07:35:54.590Z,4.502
2024-04-21T07:37:54.588Z,4.498
2024-04-21T07:38:54.592Z,4.492
2024-04-21T07:39:54.636Z,4.498
2024-04-21T07:40:54.640Z,4.323
2024-04-21T07:42:54.649Z,4.524
2024-04-21T07:43:54.636Z,4.602
2024-04-21T07:44:54.666Z,4.595
2024-04-21T07:45:54.657Z,4.605
2024-04-21T07:46:54.651Z,4.521
2024-04-21T07:47:54.743Z,4.716
2024-04-21T07:48:54.674Z,4.607
2024-04-21T07:49:54.708Z,4.710
2024-04-21T07:50:54.690Z,4.708
2024-04-21T07:51:54.728Z,4.708
2024-04-21T07:52:54.715Z,4.708
2024-04-21T07:53:54.715Z,4.705
2024-04-21T07:54:54.739Z,4.700
2024-04-21T07:55:54.728Z,4.579
2024-04-21T07:56:54.736Z,4.583
2024-04-21T07:57:54.758Z,4.576
2024-04-21T07:58:54.737Z,4.586
2024-04-21T07:59:54.769Z,4.556
2024-04-21T08:00:54.815Z,4.520
2024-04-21T08:01:54.871Z,4.564
2024-04-21T08:02:54.874Z,4.564
2024-04-21T08:04:54.819Z,4.536
2024-04-21T08:05:54.819Z,4.460
2024-04-21T08:06:54.888Z,4.544
2024-04-21T08:07:54.829Z,4.544
2024-04-21T08:09:00.978Z,4.544
2024-04-21T08:09:54.875Z,4.524
2024-04-21T08:11:03.394Z,4.449
2024-04-21T08:11:54.862Z,4.346
2024-04-21T08:12:54.882Z,4.421
2024-04-21T08:13:54.892Z,4.421
2024-04-21T08:15:54.915Z,4.457
2024-04-21T08:16:54.885Z,4.533
2024-04-21T08:17:54.974Z,4.417
2024-04-21T08:18:55.068Z,4.493
2024-04-21T08:19:54.917Z,4.493
2024-04-21T08:20:54.921Z,4.493
2024-04-21T08:21:54.954Z,4.583
2024-04-21T08:22:54.942Z,4.597
2024-04-21T08:23:54.942Z,4.597
2024-04-21T08:24:54.969Z,4.688
2024-04-21T08:25:54.950Z,4.688
2024-04-21T08:26:54.966Z,4.768
2024-04-21T08:27:54.994Z,4.637
2024-04-21T08:28:54.985Z,4.567
2024-04-21T08:29:54.986Z,4.648
2024-04-21T08:30:55.054Z,4.735
2024-04-21T08:31:58.234Z,4.648
2024-04-21T08:32:55.052Z,4.648
2024-04-21T08:33:55.026Z,4.773
2024-04-21T08:34:55.037Z,4.780
2024-04-21T08:35:55.043Z,4.683
2024-04-21T08:36:55.054Z,4.877
2024-04-21T08:37:55.058Z,4.743
2024-04-21T08:38:55.068Z,4.650
2024-04-21T08:39:55.158Z,4.731
2024-04-21T08:40:55.096Z,4.735
2024-04-21T08:41:55.145Z,4.745
2024-04-21T08:43:55.122Z,4.645
2024-04-21T08:44:55.148Z,4.638
2024-04-21T08:45:55.168Z,4.809
2024-04-21T08:46:55.152Z,4.730
2024-04-21T08:47:55.254Z,4.730
2024-04-21T08:48:55.187Z,4.730
2024-04-21T08:49:55.161Z,4.843
2024-04-21T08:50:55.167Z,4.907
2024-04-21T08:51:55.182Z,4.903
2024-04-21T08:52:55.180Z,4.731
2024-04-21T08:53:55.203Z,4.738
2024-04-21T08:54:55.225Z,4.823
2024-04-21T08:55:55.221Z,4.701
2024-04-21T08:57:55.293Z,4.816
2024-04-21T08:58:55.254Z,4.795
2024-04-21T08:59:55.245Z,4.780
2024-04-21T09:00:55.388Z,4.780
2024-04-21T09:01:55.376Z,4.784
2024-04-21T09:02:55.280Z,4.868
2024-04-21T09:03:55.452Z,4.922
2024-04-21T09:04:55.314Z,4.922
2024-04-21T09:05:55.309Z,4.918
2024-04-21T09:06:55.348Z,4.998
2024-04-21T09:07:55.303Z,4.815
2024-04-21T09:08:55.345Z,4.818
2024-04-21T09:09:55.354Z,4.815
2024-04-21T09:10:55.360Z,4.881
2024-04-21T09:11:55.345Z,4.895
2024-04-21T09:12:55.392Z,4.888
2024-04-21T09:13:55.403Z,4.881
2024-04-21T09:14:55.381Z,4.881
2024-04-21T09:15:55.462Z,4.917
2024-04-21T09:16:55.395Z,4.917
2024-04-21T09:17:56.504Z,4.925
2024-04-21T09:18:55.661Z,4.917
2024-04-21T09:19:55.420Z,5.004
2024-04-21T09:20:55.424Z,5.037
2024-04-21T09:21:55.461Z,5.040
2024-04-21T09:22:55.451Z,4.916
2024-04-21T09:23:55.458Z,4.913
2024-04-21T09:24:55.543Z,4.838
2024-04-21T09:25:55.488Z,4.758
2024-04-21T09:26:55.491Z,4.848
2024-04-21T09:27:55.556Z,4.780
2024-04-21T09:28:55.524Z,4.773
2024-04-21T09:30:55.559Z,4.711
2024-04-21T09:31:55.542Z,4.616
2024-04-21T09:32:55.813Z,4.616
2024-04-21T09:33:55.614Z,4.609
2024-04-21T09:34:55.567Z,4.612
2024-04-21T09:35:55.567Z,4.651
2024-04-21T09:36:55.590Z,4.668
2024-04-21T09:37:55.591Z,4.665
2024-04-21T09:38:55.628Z,4.743
2024-04-21T09:39:55.649Z,4.743
2024-04-21T09:40:55.644Z,4.696
2024-04-21T09:41:55.658Z,4.615
2024-04-21T09:42:55.673Z,4.604
2024-04-21T09:44:55.663Z,4.538
2024-04-21T09:45:55.717Z,4.476
2024-04-21T09:46:55.676Z,4.473
2024-04-21T09:47:55.769Z,4.376
2024-04-21T09:48:55.752Z,4.373
2024-04-21T09:49:55.700Z,4.467
2024-04-21T09:50:55.707Z,4.397
2024-04-21T09:51:55.767Z,4.397
2024-04-21T09:52:55.735Z,4.349
2024-04-21T09:53:55.751Z,4.346
2024-04-21T09:54:55.791Z,4.516
2024-04-21T09:55:55.772Z,4.589
2024-04-21T09:56:55.789Z,4.583
2024-04-21T09:57:55.851Z,4.664
2024-04-21T09:58:55.802Z,4.660
2024-04-21T09:59:55.808Z,4.562
2024-04-21T10:00:55.895Z,4.551
2024-04-21T10:01:55.918Z,4.635
2024-04-21T10:03:55.920Z,4.671
2024-04-21T10:04:55.846Z,4.791
2024-04-21T10:05:55.876Z,4.788
2024-04-21T10:06:55.895Z,4.883
2024-04-21T10:07:55.895Z,4.759
2024-04-21T10:08:55.905Z,4.836
2024-04-21T10:09:55.939Z,4.832
2024-04-21T10:10:55.985Z,4.862
2024-04-21T10:11:55.931Z,4.858
2024-04-21T10:12:55.968Z,4.869
2024-04-21T10:13:55.961Z,4.774
2024-04-21T10:15:55.975Z,4.881
2024-04-21T10:16:55.962Z,4.850
2024-04-21T10:18:56.008Z,4.685
2024-04-21T10:19:55.990Z,4.617
2024-04-21T10:20:56.003Z,4.707
2024-04-21T10:21:56.025Z,4.703
2024-04-21T10:22:56.031Z,4.589
2024-04-21T10:23:56.051Z,4.557
2024-04-21T10:24:56.081Z,4.550
2024-04-21T10:26:56.059Z,4.639
2024-04-21T10:27:56.098Z,4.643
2024-04-21T10:28:56.071Z,4.531
2024-04-21T10:29:56.092Z,4.560
2024-04-21T10:30:56.119Z,4.554
2024-04-21T10:31:56.105Z,4.642
2024-04-21T10:32:56.128Z,4.642
2024-04-21T10:33:56.112Z,4.721
2024-04-21T10:34:56.118Z,4.592
2024-04-21T10:35:56.130Z,4.516
2024-04-21T10:36:56.149Z,4.519
2024-04-21T10:37:56.147Z,4.523
2024-04-21T10:38:56.158Z,4.447
2024-04-21T10:39:56.167Z,4.443
2024-04-21T10:40:56.160Z,4.443
2024-04-21T10:41:56.163Z,4.443
2024-04-21T10:42:56.210Z,4.436
2024-04-21T10:43:56.254Z,4.449
2024-04-21T10:44:56.196Z,4.558
2024-04-21T10:45:56.198Z,4.748
2024-04-21T10:46:56.207Z,4.719
2024-04-21T10:47:56.312Z,4.837
2024-04-21T10:48:56.384Z,4.745
2024-04-21T10:49:56.238Z,4.825
2024-04-21T10:50:56.298Z,4.792
2024-04-21T10:51:56.285Z,4.792
2024-04-21T10:52:56.272Z,4.991
2024-04-21T10:53:56.281Z,4.968
2024-04-21T10:54:56.325Z,4.960
2024-04-21T10:55:56.304Z,4.793
2024-04-21T10:56:56.288Z,4.921
2024-04-21T10:57:56.326Z,5.010
2024-04-21T10:58:56.325Z,5.006
2024-04-21T10:59:56.332Z,5.010
2024-04-21T11:00:56.420Z,5.003
2024-04-21T11:01:56.412Z,4.931
2024-04-21T11:02:56.401Z,4.924
2024-04-21T11:03:56.408Z,4.770
2024-04-21T11:04:56.398Z,4.882
2024-04-21T11:05:56.395Z,4.890
2024-04-21T11:06:56.419Z,4.713
2024-04-21T11:07:58.199Z,4.520
2024-04-21T11:08:56.402Z,4.542
2024-04-21T11:10:56.429Z,4.639
2024-04-21T11:11:56.441Z,4.566
2024-04-21T11:13:56.454Z,4.497
2024-04-21T11:14:56.479Z,4.409
2024-04-21T11:15:56.500Z,4.409
2024-04-21T11:16:56.508Z,4.498
2024-04-21T11:17:56.537Z,4.562
2024-04-21T11:18:56.544Z,4.562
2024-04-21T11:19:56.515Z,4.576
2024-04-21T11:20:56.512Z,4.639
2024-04-21T11:21:56.561Z,4.709
2024-04-21T11:22:56.523Z,4.692
2024-04-21T11:23:56.538Z,4.767
2024-04-21T11:24:56.579Z,4.774
2024-04-21T11:25:56.650Z,4.801
2024-04-21T11:26:56.564Z,4.808
2024-04-21T11:27:56.597Z,4.808
2024-04-21T11:28:56.589Z,4.691
2024-04-21T11:30:56.614Z,4.621
2024-04-21T11:31:56.642Z,4.718
2024-04-21T11:32:56.721Z,4.629
2024-04-21T11:33:56.669Z,4.622
2024-04-21T11:34:56.634Z,4.711
2024-04-21T11:35:56.641Z,4.858
2024-04-21T11:36:56.654Z,4.774
2024-04-21T11:37:56.649Z,4.662
2024-04-21T11:38:56.643Z,4.669
2024-04-21T11:39:56.693Z,4.599
2024-04-21T11:40:56.683Z,4.689
2024-04-21T11:41:56.689Z,4.704
2024-04-21T11:42:56.737Z,4.580
2024-04-21T11:43:56.720Z,4.576
2024-04-21T11:44:56.762Z,4.583
2024-04-21T11:45:56.750Z,4.488
2024-04-21T11:46:56.746Z,4.488
2024-04-21T11:47:56.874Z,4.513
2024-04-21T11:48:56.893Z,4.516
2024-04-21T11:49:56.765Z,4.516
2024-04-21T11:50:56.789Z,4.619
2024-04-21T11:51:56.805Z,4.619
2024-04-21T11:52:56.781Z,4.662
2024-04-21T11:53:56.820Z,4.573
2024-04-21T11:55:56.827Z,4.580
2024-04-21T11:56:56.833Z,4.576
2024-04-21T11:57:56.885Z,4.520
2024-04-21T11:58:56.871Z,4.551
2024-04-21T11:59:56.856Z,4.653
2024-04-21T12:00:56.942Z,4.653
2024-04-21T12:01:56.923Z,4.649
2024-04-21T12:02:56.927Z,4.670
2024-04-21T12:03:56.928Z,4.551
2024-04-21T12:04:56.961Z,4.663
2024-04-21T12:05:56.902Z,4.663
2024-04-21T12:06:56.926Z,4.572
2024-04-21T12:07:56.942Z,4.579
2024-04-21T12:09:56.974Z,4.503
2024-04-21T12:10:56.995Z,4.499
2024-04-21T12:11:56.956Z,4.584
2024-04-21T12:12:56.979Z,4.591
2024-04-21T12:14:56.999Z,4.601
2024-04-21T12:15:57.031Z,4.605
2024-04-21T12:16:57.089Z,4.490
2024-04-21T12:17:57.025Z,4.415
2024-04-21T12:18:57.155Z,4.505
2024-04-21T12:19:57.011Z,4.604
2024-04-21T12:20:57.024Z,4.464
2024-04-21T12:21:57.062Z,4.568
2024-04-21T12:22:57.042Z,4.638
2024-04-21T12:23:57.064Z,4.528
2024-04-21T12:24:57.125Z,4.531
2024-04-21T12:25:57.070Z,4.541
2024-04-21T12:26:57.089Z,4.642
2024-04-21T12:28:57.100Z,4.672
2024-04-21T12:29:57.110Z,4.669
2024-04-21T12:30:57.153Z,4.676
2024-04-21T12:31:57.149Z,4.662
2024-04-21T12:32:57.386Z,4.675
2024-04-21T12:33:57.152Z,4.585
2024-04-21T12:34:57.145Z,4.578
2024-04-21T12:35:57.142Z,4.663
2024-04-21T12:36:57.211Z,4.582
2024-04-21T12:37:57.165Z,4.575
2024-04-21T12:38:57.170Z,4.575
2024-04-21T12:39:57.201Z,4.565
2024-04-21T12:40:57.235Z,4.572
2024-04-21T12:42:57.235Z,4.631
2024-04-21T12:43:57.203Z,4.546
2024-04-21T12:44:57.213Z,4.546
2024-04-21T12:45:57.363Z,4.612
2024-04-21T12:46:57.321Z,4.708
2024-04-21T12:47:57.285Z,4.699
2024-04-21T12:48:57.263Z,4.785
2024-04-21T12:49:57.250Z,4.785
2024-04-21T12:50:57.264Z,4.866
2024-04-21T12:51:57.313Z,4.866
2024-04-21T12:52:57.278Z,4.966
2024-04-21T12:53:57.311Z,4.823
2024-04-21T12:54:57.349Z,4.820
2024-04-21T12:56:57.323Z,4.900
2024-04-21T12:58:57.325Z,4.846
2024-04-21T12:59:57.346Z,4.846
2024-04-21T13:00:57.449Z,4.853
2024-04-21T13:01:57.425Z,4.857
2024-04-21T13:02:57.381Z,4.773
2024-04-21T13:03:57.449Z,4.723
2024-04-21T13:04:57.428Z,4.819
2024-04-21T13:05:57.410Z,4.807
2024-04-21T13:06:57.460Z,4.800
2024-04-21T13:07:57.418Z,4.810
2024-04-21T13:08:57.467Z,4.873
2024-04-21T13:10:57.470Z,4.811
2024-04-21T13:11:57.445Z,4.868
2024-04-21T13:12:57.468Z,4.831
2024-04-21T13:13:57.469Z,4.980
2024-04-21T13:14:57.467Z,4.869
2024-04-21T13:15:57.501Z,4.866
2024-04-21T13:16:57.508Z,4.924
2024-04-21T13:17:57.578Z,4.924
2024-04-21T13:18:57.570Z,4.924
2024-04-21T13:19:57.517Z,5.022
2024-04-21T13:20:57.528Z,4.812
2024-04-21T13:21:57.565Z,4.809
2024-04-21T13:22:57.554Z,4.717
2024-04-21T13:23:57.562Z,4.760
2024-04-21T13:25:57.562Z,4.773
2024-04-21T13:26:57.573Z,4.709
2024-04-21T13:27:57.593Z,4.702
2024-04-21T13:28:57.583Z,4.628
2024-04-21T13:29:57.620Z,4.628
2024-04-21T13:30:57.631Z,4.813
2024-04-21T13:31:57.614Z,4.912
2024-04-21T13:32:57.743Z,4.905
2024-04-21T13:33:57.654Z,4.872
2024-04-21T13:34:58.547Z,4.861
2024-04-21T13:35:57.654Z,5.064
2024-04-21T13:36:57.678Z,5.050
2024-04-21T13:37:57.670Z,5.043
2024-04-21T13:38:57.680Z,4.953
2024-04-21T13:39:57.746Z,4.950
2024-04-21T13:40:57.689Z,4.854
2024-04-21T13:41:57.702Z,4.600
2024-04-21T13:42:57.715Z,4.630
2024-04-21T13:43:57.712Z,4.623
2024-04-21T13:44:57.728Z,4.561
2024-04-21T13:45:57.760Z,4.670
2024-04-21T13:46:57.791Z,4.496
2024-04-21T13:47:57.836Z,4.606
2024-04-21T13:48:57.858Z,4.466